Time;durP1;ratioP1;P1;durP2;ratioP2;P2;SDS_P1;SDS_P2;PMS_P1;PMS_P2;Temp;Humidity;BMP_temperature;BMP_pressure;BME280_temperature;BME280_humidity;BME280_pressure;Samples;Min_cycle;Max_cycle;Signal;HPM_P1;HPM_P2
2023/11/25 00:00:46;;;;;;;9.23;1.00;;;4.00;99.90;;;;;;5044504;28;20071;-81
2023/11/25 00:03:13;;;;;;;8.07;0.90;;;4.00;99.90;;;;;;5063367;28;20408;-81
2023/11/25 00:05:39;;;;;;;7.53;1.00;;;4.00;99.90;;;;;;5061985;28;20081;-82
2023/11/25 00:08:05;;;;;;;11.53;1.50;;;4.00;99.90;;;;;;5045260;28;20120;-82
2023/11/25 00:10:31;;;;;;;16.90;2.70;;;4.00;99.90;;;;;;5061624;28;20055;-81
2023/11/25 00:12:57;;;;;;;17.40;1.73;;;4.00;99.90;;;;;;5045369;28;20107;-82
2023/11/25 00:15:25;;;;;;;11.93;1.40;;;4.00;99.90;;;;;;5062184;28;20051;-82
2023/11/25 00:17:52;;;;;;;19.43;1.70;;;4.00;99.90;;;;;;5044273;28;20025;-82
2023/11/25 00:20:21;;;;;;;13.53;1.70;;;4.10;99.90;;;;;;5044878;28;20037;-82
2023/11/25 00:22:47;;;;;;;19.37;2.00;;;4.10;99.90;;;;;;5043263;28;20564;-82
2023/11/25 00:25:15;;;;;;;16.70;1.80;;;4.10;99.90;;;;;;5063180;28;20050;-82
2023/11/25 00:27:41;;;;;;;12.17;1.63;;;4.10;99.90;;;;;;5061226;28;20021;-83
2023/11/25 00:30:07;;;;;;;14.80;1.40;;;4.20;99.90;;;;;;5044924;28;20025;-82
2023/11/25 00:32:39;;;;;;;21.03;1.73;;;4.10;99.90;;;;;;5044329;28;20021;-82
2023/11/25 00:35:06;;;;;;;15.23;1.57;;;4.10;99.90;;;;;;5061615;28;20025;-82
2023/11/25 00:37:35;;;;;;;19.63;1.73;;;4.20;99.90;;;;;;5062681;28;20025;-82
2023/11/25 00:40:04;;;;;;;15.30;2.73;;;4.20;99.90;;;;;;5043040;28;20029;-82
2023/11/25 00:42:30;;;;;;;17.47;2.40;;;4.20;99.90;;;;;;5062655;28;20017;-82
2023/11/25 00:44:56;;;;;;;12.27;1.47;;;4.20;99.90;;;;;;5061305;28;20028;-82
2023/11/25 00:47:23;;;;;;;11.90;2.10;;;4.20;99.90;;;;;;5062276;28;20035;-82
2023/11/25 00:49:49;;;;;;;23.13;2.97;;;4.20;99.90;;;;;;5043592;28;20021;-82
2023/11/25 00:52:17;;;;;;;12.43;1.40;;;4.20;99.90;;;;;;5061365;28;20047;-83
2023/11/25 00:54:43;;;;;;;13.47;1.63;;;4.20;99.90;;;;;;5043413;28;20052;-83
2023/11/25 00:57:08;;;;;;;13.63;1.73;;;4.20;99.90;;;;;;5042714;28;20074;-83
2023/11/25 00:59:34;;;;;;;10.80;2.03;;;4.20;99.90;;;;;;5026624;28;20046;-83
2023/11/25 01:02:00;;;;;;;12.93;1.83;;;4.20;99.90;;;;;;5019356;28;20026;-82
2023/11/25 01:04:26;;;;;;;17.23;2.03;;;4.20;99.90;;;;;;5021866;28;20026;-82
2023/11/25 01:06:52;;;;;;;14.23;1.77;;;4.20;99.90;;;;;;5021016;28;20117;-82
2023/11/25 01:09:19;;;;;;;19.07;1.90;;;4.20;99.90;;;;;;5021374;28;20034;-83
2023/11/25 01:11:45;;;;;;;13.43;2.47;;;4.20;99.90;;;;;;5027079;28;20494;-83
2023/11/25 01:14:12;;;;;;;15.87;2.13;;;4.20;99.90;;;;;;5028043;28;20102;-83
2023/11/25 01:16:38;;;;;;;13.60;2.60;;;4.20;99.90;;;;;;5022732;28;20102;-83
2023/11/25 01:19:05;;;;;;;10.67;1.83;;;4.20;99.90;;;;;;5020896;28;20033;-82
2023/11/25 01:21:30;;;;;;;13.63;1.73;;;4.20;99.90;;;;;;5020817;28;20522;-83
2023/11/25 01:23:57;;;;;;;18.37;2.10;;;4.30;99.90;;;;;;5021383;28;20030;-82
2023/11/25 01:26:24;;;;;;;17.07;1.97;;;4.30;99.90;;;;;;5020023;28;20030;-83
2023/11/25 01:28:49;;;;;;;18.00;2.23;;;4.30;99.90;;;;;;5020598;28;20044;-82
2023/11/25 01:31:15;;;;;;;18.17;2.60;;;4.30;99.90;;;;;;5018913;28;20022;-81
2023/11/25 01:33:41;;;;;;;14.83;2.90;;;4.30;99.90;;;;;;5022396;28;20031;-82
2023/11/25 01:36:11;;;;;;;21.97;2.40;;;4.30;99.90;;;;;;5018875;28;20085;-83
2023/11/25 01:38:37;;;;;;;17.30;2.13;;;4.30;99.90;;;;;;5004486;28;20034;-82
2023/11/25 01:41:04;;;;;;;14.30;1.97;;;4.30;99.90;;;;;;5019182;28;20037;-82
2023/11/25 01:43:33;;;;;;;18.93;2.43;;;4.30;99.90;;;;;;5019645;28;20045;-82
2023/11/25 01:46:01;;;;;;;24.70;2.53;;;4.30;99.90;;;;;;5021974;28;20045;-82
2023/11/25 01:48:31;;;;;;;15.13;1.60;;;4.40;99.90;;;;;;5018373;28;20411;-83
2023/11/25 01:50:57;;;;;;;13.13;1.57;;;4.40;99.90;;;;;;5004799;28;20049;-82
2023/11/25 01:53:25;;;;;;;29.47;2.63;;;4.40;99.90;;;;;;5020150;28;20032;-81
2023/11/25 01:55:52;;;;;;;15.87;2.00;;;4.40;99.90;;;;;;5021980;28;20081;-82
2023/11/25 01:58:20;;;;;;;19.17;2.40;;;4.40;99.90;;;;;;5019312;28;20060;-82
2023/11/25 02:00:46;;;;;;;20.90;2.83;;;4.40;99.90;;;;;;5019425;28;20117;-82
2023/11/25 02:03:13;;;;;;;14.87;2.13;;;4.40;99.90;;;;;;5021525;28;20022;-83
2023/11/25 02:05:40;;;;;;;20.30;2.77;;;4.50;99.90;;;;;;5018395;28;20030;-83
2023/11/25 02:08:08;;;;;;;14.10;2.73;;;4.50;99.90;;;;;;5021989;28;20037;-83
2023/11/25 02:10:34;;;;;;;18.37;1.93;;;4.50;99.90;;;;;;5018692;28;20033;-80
2023/11/25 02:13:08;;;;;;;16.60;1.70;;;4.50;99.90;;;;;;5021208;28;20030;-81
2023/11/25 02:15:34;;;;;;;24.02;2.08;;;4.60;99.90;;;;;;5019499;28;20029;-82
2023/11/25 02:18:00;;;;;;;20.87;2.13;;;4.60;99.90;;;;;;5018685;28;20057;-81
2023/11/25 02:20:42;;;;;;;18.03;2.10;;;4.60;99.90;;;;;;5019979;28;20030;-82
2023/11/25 02:23:24;;;;;;;11.60;1.67;;;4.60;99.90;;;;;;5018213;28;20014;-82
2023/11/25 02:25:52;;;;;;;9.63;2.03;;;4.70;99.90;;;;;;5019790;28;20486;-80
2023/11/25 02:28:19;;;;;;;16.07;1.70;;;4.70;99.90;;;;;;5019103;28;20041;-81
2023/11/25 02:30:48;;;;;;;9.53;1.43;;;4.60;99.90;;;;;;5020220;28;20058;-81
2023/11/25 02:33:14;;;;;;;18.97;1.93;;;4.80;99.90;;;;;;5021293;28;20025;-81
2023/11/25 02:35:42;;;;;;;14.37;1.73;;;4.70;99.90;;;;;;5018082;28;20030;-82
2023/11/25 02:38:11;;;;;;;17.13;1.87;;;4.70;99.90;;;;;;5020188;28;20026;-82
2023/11/25 02:40:39;;;;;;;12.33;1.40;;;4.70;99.90;;;;;;5019166;28;20022;-81
2023/11/25 02:43:07;;;;;;;15.37;1.67;;;4.70;99.90;;;;;;5020828;28;20052;-81
2023/11/25 02:45:33;;;;;;;15.00;1.40;;;4.70;99.90;;;;;;5019322;28;20034;-81
2023/11/25 02:47:59;;;;;;;13.90;2.03;;;4.60;99.90;;;;;;5018318;28;20034;-81
2023/11/25 02:50:25;;;;;;;9.03;1.47;;;4.60;99.90;;;;;;5021123;28;20032;-81
2023/11/25 02:52:51;;;;;;;13.13;1.30;;;4.60;99.90;;;;;;5018016;28;20022;-81
2023/11/25 02:55:17;;;;;;;12.60;1.27;;;4.60;99.90;;;;;;5019773;28;20025;-83
2023/11/25 02:57:44;;;;;;;12.37;1.43;;;4.60;99.90;;;;;;5018005;28;20041;-83
2023/11/25 03:00:28;;;;;;;17.43;2.00;;;4.50;99.90;;;;;;5019195;28;20101;-83
2023/11/25 03:03:00;;;;;;;10.38;1.15;;;4.50;99.90;;;;;;5019233;28;20053;-83
2023/11/25 03:05:31;;;;;;;12.30;1.20;;;4.50;99.90;;;;;;5019337;28;20082;-83
2023/11/25 03:08:01;;;;;;;12.67;1.40;;;4.50;99.90;;;;;;5021164;28;20052;-83
2023/11/25 03:10:27;;;;;;;11.67;1.20;;;4.40;99.90;;;;;;5019324;28;20049;-83
2023/11/25 03:12:53;;;;;;;10.07;1.40;;;4.40;99.90;;;;;;5019240;28;20495;-82
2023/11/25 03:15:19;;;;;;;12.07;1.27;;;4.50;99.90;;;;;;5019707;28;20549;-82
2023/11/25 03:17:46;;;;;;;11.23;2.07;;;4.40;99.90;;;;;;5019285;28;20018;-82
2023/11/25 03:20:11;;;;;;;15.87;1.90;;;4.40;99.90;;;;;;5022641;28;20026;-82
2023/11/25 03:22:37;;;;;;;12.63;1.87;;;4.40;99.90;;;;;;5022765;28;20057;-81
2023/11/25 03:25:05;;;;;;;11.90;1.80;;;4.40;99.90;;;;;;5023330;28;20402;-82
2023/11/25 03:27:31;;;;;;;11.43;1.27;;;4.30;99.90;;;;;;5005131;28;20041;-83
2023/11/25 03:29:57;;;;;;;10.70;1.23;;;4.30;99.90;;;;;;5023506;28;20034;-83
2023/11/25 03:32:25;;;;;;;12.67;1.90;;;4.30;99.90;;;;;;5022130;28;20022;-83
2023/11/25 03:34:51;;;;;;;10.93;1.13;;;4.30;99.90;;;;;;5023563;28;20036;-83
2023/11/25 03:37:17;;;;;;;14.33;1.57;;;4.30;99.90;;;;;;5023949;28;20038;-83
2023/11/25 03:39:43;;;;;;;9.17;1.10;;;4.30;99.90;;;;;;5022838;28;20034;-84
2023/11/25 03:42:10;;;;;;;12.37;1.63;;;4.30;99.90;;;;;;5023682;28;20029;-82
2023/11/25 03:44:36;;;;;;;15.00;1.47;;;4.30;99.90;;;;;;5022045;28;20026;-82
2023/11/25 03:47:03;;;;;;;12.53;1.10;;;4.30;99.90;;;;;;5022562;28;20018;-83
2023/11/25 03:49:32;;;;;;;13.50;1.47;;;4.20;99.90;;;;;;5021506;28;20447;-82
2023/11/25 03:51:58;;;;;;;13.23;1.57;;;4.20;99.90;;;;;;5021200;28;20022;-82
2023/11/25 03:54:23;;;;;;;11.03;1.60;;;4.20;99.90;;;;;;5022115;28;20117;-83
2023/11/25 03:56:49;;;;;;;12.13;1.47;;;4.20;99.90;;;;;;5020650;28;20026;-83
2023/11/25 03:59:15;;;;;;;13.97;1.50;;;4.20;99.90;;;;;;5021963;28;20042;-83
2023/11/25 04:01:43;;;;;;;13.23;1.57;;;4.20;99.90;;;;;;5020670;28;20542;-83
2023/11/25 04:04:10;;;;;;;15.03;2.20;;;4.20;99.90;;;;;;5014751;28;20034;-84
2023/11/25 04:06:36;;;;;;;14.40;2.43;;;4.20;99.90;;;;;;4990012;28;20061;-83
2023/11/25 04:09:01;;;;;;;10.40;1.10;;;4.20;99.90;;;;;;5002915;28;20479;-83
2023/11/25 04:11:27;;;;;;;21.03;2.17;;;4.20;99.90;;;;;;5001897;28;20030;-83
2023/11/25 04:13:56;;;;;;;13.30;2.40;;;4.20;99.90;;;;;;5001074;28;20029;-83
2023/11/25 04:16:22;;;;;;;15.73;1.80;;;4.30;99.90;;;;;;5002812;28;20095;-83
2023/11/25 04:18:48;;;;;;;18.00;2.27;;;4.40;99.90;;;;;;5002128;28;20027;-83
2023/11/25 04:21:14;;;;;;;13.03;2.00;;;4.40;99.90;;;;;;5004198;28;20598;-83
2023/11/25 04:23:40;;;;;;;21.07;2.97;;;4.50;99.90;;;;;;5001605;28;20108;-83
2023/11/25 04:26:06;;;;;;;14.00;2.70;;;4.50;99.90;;;;;;5005870;28;20018;-83
2023/11/25 04:28:33;;;;;;;14.50;1.70;;;4.60;99.90;;;;;;5009956;28;20041;-82
2023/11/25 04:30:59;;;;;;;15.97;2.30;;;4.60;99.90;;;;;;5002992;28;20018;-83
2023/11/25 04:33:25;;;;;;;12.60;2.27;;;4.70;99.90;;;;;;5003595;28;20053;-83
2023/11/25 04:35:54;;;;;;;22.37;1.57;;;4.60;99.90;;;;;;5000379;28;20708;-82
2023/11/25 04:38:19;;;;;;;13.77;1.33;;;4.70;99.90;;;;;;4986641;28;20062;-83
2023/11/25 04:40:45;;;;;;;15.87;2.23;;;4.80;99.90;;;;;;4999840;28;20030;-83
2023/11/25 04:43:11;;;;;;;12.87;1.20;;;4.80;99.90;;;;;;5001215;28;20083;-84
2023/11/25 04:45:36;;;;;;;15.20;1.90;;;4.80;99.90;;;;;;5000746;28;20042;-83
2023/11/25 04:48:03;;;;;;;19.60;2.30;;;4.80;99.90;;;;;;5001662;28;20072;-84
2023/11/25 04:50:29;;;;;;;10.10;1.97;;;4.80;99.90;;;;;;5003049;28;20038;-83
2023/11/25 04:52:55;;;;;;;18.37;1.67;;;4.80;99.90;;;;;;4999649;28;20030;-83
2023/11/25 04:55:22;;;;;;;14.87;1.50;;;4.80;99.90;;;;;;5002918;28;20053;-83
2023/11/25 04:57:49;;;;;;;13.33;1.43;;;4.90;99.90;;;;;;5000082;28;20452;-82
2023/11/25 05:00:17;;;;;;;13.53;1.77;;;4.90;99.90;;;;;;5023979;28;20418;-82
2023/11/25 05:02:43;;;;;;;11.03;1.77;;;4.90;99.90;;;;;;5041955;28;20037;-82
2023/11/25 05:05:09;;;;;;;17.57;2.17;;;5.00;99.90;;;;;;5041035;28;20113;-82
2023/11/25 05:07:35;;;;;;;11.97;1.47;;;5.00;99.90;;;;;;5042026;28;20033;-82
2023/11/25 05:10:02;;;;;;;18.60;3.43;;;4.90;99.90;;;;;;5022078;28;20061;-82
2023/11/25 05:12:28;;;;;;;14.90;1.50;;;4.90;99.90;;;;;;5024239;28;20024;-82
2023/11/25 05:14:54;;;;;;;11.03;1.40;;;4.90;99.90;;;;;;5040400;28;20029;-82
2023/11/25 05:17:22;;;;;;;16.00;1.53;;;4.90;99.90;;;;;;5041808;28;20513;-82
2023/11/25 05:19:48;;;;;;;15.43;1.40;;;4.90;99.90;;;;;;5023493;28;20021;-83
2023/11/25 05:22:14;;;;;;;10.73;1.37;;;4.90;99.90;;;;;;5022827;28;20018;-84
2023/11/25 05:24:39;;;;;;;11.53;1.93;;;4.80;99.90;;;;;;5041909;28;20095;-83
2023/11/25 05:27:05;;;;;;;12.63;1.33;;;4.90;99.90;;;;;;5022166;28;20028;-83
2023/11/25 05:29:30;;;;;;;9.77;0.90;;;4.80;99.90;;;;;;5042182;28;20022;-83
2023/11/25 05:31:57;;;;;;;11.63;1.50;;;4.80;99.90;;;;;;5006054;28;20032;-82
2023/11/25 05:34:24;;;;;;;13.07;1.77;;;4.90;99.90;;;;;;5017634;28;20040;-82
2023/11/25 05:36:49;;;;;;;8.77;1.17;;;4.80;99.90;;;;;;5010319;28;20037;-82
2023/11/25 05:39:20;;;;;;;18.43;1.50;;;4.80;99.90;;;;;;5022741;28;20090;-82
2023/11/25 05:41:49;;;;;;;15.87;1.30;;;4.80;99.90;;;;;;5030674;28;20024;-83
2023/11/25 05:44:15;;;;;;;6.40;0.93;;;4.70;99.90;;;;;;5059302;28;20857;-83
2023/11/25 05:46:41;;;;;;;9.00;1.00;;;4.70;99.90;;;;;;5043589;28;20024;-82
2023/11/25 05:49:09;;;;;;;11.00;1.63;;;4.70;99.90;;;;;;5041683;28;20032;-83
2023/11/25 05:51:42;;;;;;;6.67;1.00;;;4.70;99.90;;;;;;5061156;28;20025;-83
2023/11/25 05:54:08;;;;;;;8.50;1.00;;;4.70;99.90;;;;;;5061057;28;20025;-82
2023/11/25 05:56:34;;;;;;;5.83;0.83;;;4.70;99.90;;;;;;5051576;28;20074;-82
2023/11/25 05:59:01;;;;;;;2.23;0.70;;;4.70;99.90;;;;;;5023511;28;20088;-82
2023/11/25 06:01:27;;;;;;;5.03;0.70;;;4.60;99.90;;;;;;5021580;28;20083;-83
2023/11/25 06:03:53;;;;;;;6.60;0.60;;;4.70;99.90;;;;;;5023537;28;20029;-82
2023/11/25 06:06:21;;;;;;;10.87;1.20;;;4.70;99.90;;;;;;5039845;28;20025;-83
2023/11/25 06:08:47;;;;;;;6.63;0.73;;;4.70;99.90;;;;;;5022985;28;20060;-82
2023/11/25 06:11:26;;;;;;;8.07;1.70;;;4.60;99.90;;;;;;5040324;28;20029;-82
2023/11/25 06:13:58;;;;;;;6.93;0.77;;;4.60;99.90;;;;;;5039815;28;20034;-81
2023/11/25 06:16:24;;;;;;;3.27;0.50;;;4.50;99.90;;;;;;5023180;28;20028;-81
2023/11/25 06:18:51;;;;;;;6.20;0.70;;;4.50;99.90;;;;;;5021384;28;20022;-81
2023/11/25 06:21:16;;;;;;;8.00;0.50;;;4.50;99.90;;;;;;5023267;28;20040;-80
2023/11/25 06:23:45;;;;;;;5.03;0.63;;;4.50;99.90;;;;;;5039919;28;20445;-79
2023/11/25 06:26:11;;;;;;;4.80;1.53;;;4.50;99.90;;;;;;5040604;28;20030;-81
2023/11/25 06:28:41;;;;;;;8.40;0.70;;;4.40;99.90;;;;;;5022951;28;20080;-81
2023/11/25 06:31:08;;;;;;;6.43;0.60;;;4.40;99.90;;;;;;5021696;28;20037;-80
2023/11/25 06:33:34;;;;;;;6.33;2.20;;;4.40;99.90;;;;;;5041262;28;20490;-80
2023/11/25 06:35:59;;;;;;;4.33;0.53;;;4.50;99.90;;;;;;5039386;28;20056;-81
2023/11/25 06:38:26;;;;;;;7.20;0.80;;;4.40;99.90;;;;;;5022924;28;20025;-82
2023/11/25 06:40:51;;;;;;;7.80;0.70;;;4.50;99.90;;;;;;5021887;28;20044;-82
2023/11/25 06:43:17;;;;;;;6.07;1.00;;;4.40;99.90;;;;;;5022309;28;20382;-82
2023/11/25 06:45:44;;;;;;;3.17;0.50;;;4.40;99.90;;;;;;5040323;28;20030;-82
2023/11/25 06:48:10;;;;;;;8.87;1.57;;;4.40;99.90;;;;;;5021598;28;20402;-81
2023/11/25 06:50:39;;;;;;;7.83;1.23;;;4.50;99.90;;;;;;5041025;28;20512;-82
2023/11/25 06:53:05;;;;;;;8.13;0.83;;;4.40;99.90;;;;;;5022713;28;20033;-83
2023/11/25 06:55:32;;;;;;;8.37;0.77;;;4.50;99.90;;;;;;5045076;28;20025;-83
2023/11/25 06:57:58;;;;;;;6.57;1.30;;;4.50;99.90;;;;;;5043580;28;20021;-81
2023/11/25 07:00:23;;;;;;;6.53;1.00;;;4.60;99.90;;;;;;5025968;28;20045;-80
2023/11/25 07:02:49;;;;;;;7.50;1.00;;;4.70;99.90;;;;;;5026531;28;20049;-82
2023/11/25 07:05:15;;;;;;;7.30;0.90;;;4.80;99.90;;;;;;5025324;28;20450;-81
2023/11/25 07:07:41;;;;;;;8.00;0.87;;;4.80;99.90;;;;;;5044147;28;20060;-81
2023/11/25 07:10:10;;;;;;;8.30;0.77;;;4.80;99.90;;;;;;5042274;28;20141;-80
2023/11/25 07:12:37;;;;;;;11.40;1.27;;;4.90;99.90;;;;;;5044433;28;20034;-81
2023/11/25 07:15:04;;;;;;;10.30;1.07;;;4.90;99.90;;;;;;5043126;28;20029;-82
2023/11/25 07:17:30;;;;;;;4.13;0.70;;;4.90;99.90;;;;;;5025867;28;20079;-83
2023/11/25 07:19:56;;;;;;;9.77;0.73;;;4.90;99.90;;;;;;5043671;28;20459;-83
2023/11/25 07:22:21;;;;;;;7.03;0.73;;;4.90;99.90;;;;;;5042715;28;20047;-83
2023/11/25 07:24:47;;;;;;;4.77;0.70;;;4.90;99.90;;;;;;5044263;28;20638;-83
2023/11/25 07:27:18;;;;;;;7.87;0.80;;;4.90;99.90;;;;;;5041685;28;20112;-83
2023/11/25 07:29:44;;;;;;;5.77;0.50;;;4.90;99.90;;;;;;5064010;28;20047;-83
2023/11/25 07:32:12;;;;;;;5.10;0.70;;;4.90;99.90;;;;;;5063012;28;20021;-84
2023/11/25 07:34:38;;;;;;;6.33;0.73;;;5.00;99.90;;;;;;5063387;28;20060;-83
2023/11/25 07:37:05;;;;;;;9.90;0.83;;;5.00;99.90;;;;;;5064645;28;20029;-82
2023/11/25 07:39:33;;;;;;;8.00;0.90;;;5.00;99.90;;;;;;5045422;28;20144;-83
2023/11/25 07:41:59;;;;;;;4.33;0.80;;;5.00;99.90;;;;;;5064213;28;20055;-83
2023/11/25 07:44:31;;;;;;;9.13;0.80;;;5.00;99.90;;;;;;5053515;28;20040;-83
2023/11/25 07:46:58;;;;;;;6.53;0.80;;;5.00;99.90;;;;;;5037794;28;20032;-82
2023/11/25 07:49:24;;;;;;;5.63;0.50;;;5.00;99.90;;;;;;5053243;28;20037;-82
2023/11/25 07:51:50;;;;;;;4.70;0.70;;;4.90;99.90;;;;;;5049946;28;20104;-83
2023/11/25 07:54:17;;;;;;;4.50;0.83;;;4.90;99.90;;;;;;5042737;28;20075;-83
2023/11/25 07:56:42;;;;;;;4.67;0.63;;;4.90;99.90;;;;;;5024282;28;20025;-82
2023/11/25 07:59:09;;;;;;;6.80;0.70;;;4.90;99.90;;;;;;5023991;28;20120;-83
2023/11/25 08:01:36;;;;;;;3.87;0.60;;;4.90;99.90;;;;;;5023014;28;20037;-84
2023/11/25 08:04:02;;;;;;;5.90;0.90;;;4.90;99.90;;;;;;5024417;28;20536;-84
2023/11/25 08:06:27;;;;;;;7.80;0.70;;;4.90;99.90;;;;;;5023652;28;20081;-83
2023/11/25 08:08:53;;;;;;;5.17;0.53;;;4.90;99.90;;;;;;5042069;28;20108;-84
2023/11/25 08:11:23;;;;;;;3.60;0.50;;;4.90;99.90;;;;;;5023708;28;20048;-83
2023/11/25 08:13:49;;;;;;;7.50;0.70;;;5.00;99.90;;;;;;5022633;28;20060;-83
2023/11/25 08:16:14;;;;;;;3.97;0.67;;;5.00;99.90;;;;;;5025199;28;20017;-84
2023/11/25 08:18:40;;;;;;;5.77;0.70;;;5.00;99.90;;;;;;5041344;28;20021;-84
2023/11/25 08:21:07;;;;;;;7.13;0.70;;;5.10;99.90;;;;;;5025341;28;20040;-82
2023/11/25 08:23:33;;;;;;;1.93;0.97;;;5.10;99.90;;;;;;5041652;28;20033;-83
2023/11/25 08:25:58;;;;;;;4.80;0.40;;;5.30;99.90;;;;;;5024691;28;20026;-83
2023/11/25 08:28:25;;;;;;;9.03;0.50;;;5.30;99.90;;;;;;5024212;28;20022;-83
2023/11/25 08:30:51;;;;;;;3.33;0.40;;;5.30;99.90;;;;;;5023988;28;20044;-83
2023/11/25 08:33:17;;;;;;;6.37;0.60;;;5.40;99.90;;;;;;5042687;28;20057;-84
2023/11/25 08:35:43;;;;;;;2.33;0.60;;;5.40;99.90;;;;;;5023032;28;20032;-83
2023/11/25 08:38:10;;;;;;;6.97;0.63;;;5.30;99.90;;;;;;5024913;28;20021;-83
2023/11/25 08:40:35;;;;;;;3.83;0.50;;;5.40;99.90;;;;;;5023102;28;20559;-83
2023/11/25 08:43:08;;;;;;;6.37;1.23;;;5.40;99.90;;;;;;5024279;28;20077;-83
2023/11/25 08:45:36;;;;;;;7.73;0.90;;;5.50;99.90;;;;;;5023517;28;20021;-83
2023/11/25 08:48:03;;;;;;;5.13;0.83;;;5.50;99.90;;;;;;5022955;28;20104;-83
2023/11/25 08:50:29;;;;;;;3.57;0.77;;;5.50;99.90;;;;;;5021537;28;20024;-83
2023/11/25 08:52:54;;;;;;;2.53;0.50;;;5.50;99.90;;;;;;5022220;28;20029;-83
2023/11/25 08:55:22;;;;;;;5.13;0.70;;;5.50;99.90;;;;;;5042062;28;20024;-83
2023/11/25 08:57:50;;;;;;;5.07;0.83;;;5.50;99.90;;;;;;5022994;28;20029;-83
2023/11/25 09:00:19;;;;;;;3.30;0.50;;;5.60;99.90;;;;;;5023793;28;20054;-82
2023/11/25 09:02:47;;;;;;;5.20;0.50;;;5.70;99.90;;;;;;5042147;28;20021;-82
2023/11/25 09:05:14;;;;;;;6.10;0.73;;;5.80;99.90;;;;;;5022971;28;20026;-82
2023/11/25 09:07:44;;;;;;;4.43;0.70;;;5.90;99.90;;;;;;5024581;28;20061;-83
2023/11/25 09:10:10;;;;;;;3.47;0.50;;;6.00;99.90;;;;;;5040727;28;20049;-83
2023/11/25 09:12:37;;;;;;;4.37;0.53;;;6.10;99.90;;;;;;5042438;28;20022;-84
2023/11/25 09:15:04;;;;;;;6.07;0.60;;;6.10;99.90;;;;;;5040882;28;20021;-82
2023/11/25 09:17:32;;;;;;;3.43;0.40;;;6.20;99.90;;;;;;5023417;28;20030;-83
2023/11/25 09:19:59;;;;;;;4.17;0.80;;;6.30;99.90;;;;;;5041925;28;20408;-83
2023/11/25 09:22:25;;;;;;;4.73;0.60;;;6.50;99.90;;;;;;5039939;28;20026;-84
2023/11/25 09:24:51;;;;;;;7.93;0.67;;;6.70;99.90;;;;;;5041513;28;20045;-83
2023/11/25 09:27:18;;;;;;;5.57;0.63;;;6.90;99.90;;;;;;5040493;28;20033;-83
2023/11/25 09:29:45;;;;;;;5.43;0.70;;;7.20;99.90;;;;;;5015207;28;20025;-83
2023/11/25 09:32:11;;;;;;;3.43;0.53;;;7.40;99.90;;;;;;5022445;28;20013;-83
2023/11/25 09:34:38;;;;;;;6.60;0.77;;;7.40;99.90;;;;;;5041144;28;20091;-82
2023/11/25 09:37:04;;;;;;;10.17;0.80;;;7.40;99.90;;;;;;5041034;28;20006;-82
2023/11/25 09:39:31;;;;;;;6.53;0.73;;;7.30;99.90;;;;;;5039890;28;20048;-82
2023/11/25 09:41:57;;;;;;;4.20;0.50;;;7.30;99.90;;;;;;5022741;28;20231;-83
2023/11/25 09:44:23;;;;;;;6.37;0.60;;;7.20;99.90;;;;;;5021943;28;20036;-83
2023/11/25 09:46:49;;;;;;;4.87;0.40;;;7.60;99.90;;;;;;5040965;28;20014;-83
2023/11/25 09:49:16;;;;;;;5.90;0.50;;;8.20;99.90;;;;;;5039401;28;20084;-83
2023/11/25 09:51:46;;;;;;;5.88;0.68;;;8.80;99.90;;;;;;5022332;28;20484;-83
2023/11/25 09:54:21;;;;;;;6.00;0.60;;;9.00;99.90;;;;;;5021393;28;20094;-83
2023/11/25 09:56:50;;;;;;;3.00;0.63;;;9.20;99.90;;;;;;5040486;28;20041;-84
2023/11/25 09:59:16;;;;;;;1.30;0.30;;;9.60;99.90;;;;;;5023339;28;20045;-84
2023/11/25 10:01:42;;;;;;;3.03;0.30;;;10.10;99.90;;;;;;5039619;28;20124;-84
2023/11/25 10:04:08;;;;;;;2.65;0.40;;;10.60;99.90;;;;;;5041407;28;20529;-85
2023/11/25 10:06:33;;;;;;;2.65;0.50;;;11.00;99.90;;;;;;5041005;28;20080;-84
2023/11/25 10:08:59;;;;;;;1.92;0.38;;;11.20;99.90;;;;;;5023002;28;20033;-84
2023/11/25 10:11:28;;;;;;;2.28;0.40;;;11.50;99.90;;;;;;5040933;28;20037;-83
2023/11/25 10:13:54;;;;;;;4.85;0.73;;;11.70;99.90;;;;;;5022247;28;20029;-84
2023/11/25 10:16:28;;;;;;;4.72;0.50;;;11.90;99.10;;;;;;5023556;28;20033;-83
2023/11/25 10:18:54;;;;;;;3.40;0.52;;;12.00;98.10;;;;;;5039686;28;20032;-83
2023/11/25 10:21:20;;;;;;;4.65;0.88;;;12.10;95.80;;;;;;5023364;28;20085;-84
2023/11/25 10:23:45;;;;;;;5.95;0.60;;;11.70;91.60;;;;;;5022530;28;20025;-83
2023/11/25 10:26:16;;;;;;;4.70;1.02;;;11.30;90.80;;;;;;5022144;28;20021;-83
2023/11/25 10:28:45;;;;;;;4.32;0.80;;;10.90;91.20;;;;;;5011271;28;20096;-83
2023/11/25 10:31:14;;;;;;;8.43;1.13;;;10.50;91.20;;;;;;5025774;28;20034;-83
2023/11/25 10:33:42;;;;;;;8.48;1.05;;;10.20;91.80;;;;;;5027692;28;20034;-82
2023/11/25 10:36:10;;;;;;;6.57;0.80;;;10.20;92.30;;;;;;5026022;28;20037;-83
2023/11/25 10:38:39;;;;;;;9.63;1.23;;;10.40;93.00;;;;;;5045294;28;20026;-83
2023/11/25 10:41:08;;;;;;;9.70;0.80;;;10.70;93.00;;;;;;5025741;28;20041;-83
2023/11/25 10:43:34;;;;;;;11.27;1.38;;;11.00;93.30;;;;;;5044274;28;20029;-83
2023/11/25 10:46:08;;;;;;;6.05;0.90;;;11.40;92.50;;;;;;5044607;28;20056;-83
2023/11/25 10:48:35;;;;;;;9.98;1.00;;;11.70;92.10;;;;;;5042666;28;20091;-83
2023/11/25 10:51:01;;;;;;;5.70;1.15;;;12.00;91.90;;;;;;5026373;28;20058;-83
2023/11/25 10:53:31;;;;;;;6.38;0.70;;;12.40;91.50;;;;;;5043966;28;20009;-84
2023/11/25 10:55:58;;;;;;;8.52;0.90;;;12.60;91.10;;;;;;5045585;28;20339;-83
2023/11/25 10:58:29;;;;;;;9.65;1.38;;;12.80;90.20;;;;;;5046117;28;20088;-83
2023/11/25 11:00:55;;;;;;;5.65;0.77;;;12.90;88.40;;;;;;5050910;28;20025;-83
2023/11/25 11:03:25;;;;;;;9.50;1.48;;;13.00;86.60;;;;;;5030894;28;20025;-83
2023/11/25 11:06:01;;;;;;;8.77;1.30;;;12.90;85.90;;;;;;5025809;28;20017;-83
2023/11/25 11:08:48;;;;;;;8.10;1.30;;;12.70;84.70;;;;;;5044659;28;20033;-82
2023/11/25 11:11:35;;;;;;;11.93;1.70;;;12.50;83.60;;;;;;5044030;28;20094;-83
2023/11/25 11:14:13;;;;;;;5.78;1.02;;;12.10;83.80;;;;;;5042754;28;20024;-83
2023/11/25 11:16:47;;;;;;;9.77;0.90;;;11.70;84.40;;;;;;5026072;28;20107;-83
2023/11/25 11:19:15;;;;;;;7.05;1.05;;;11.40;85.00;;;;;;5025444;28;20486;-82
2023/11/25 11:21:47;;;;;;;5.45;0.90;;;11.20;85.90;;;;;;5026818;28;20028;-83
2023/11/25 11:24:20;;;;;;;6.50;0.88;;;11.10;86.50;;;;;;5026089;28;20028;-83
2023/11/25 11:26:58;;;;;;;6.95;0.98;;;10.90;86.80;;;;;;5042835;28;20425;-83
2023/11/25 11:29:35;;;;;;;8.60;0.70;;;10.70;86.30;;;;;;5026190;28;20029;-82
2023/11/25 11:32:03;;;;;;;9.82;0.82;;;10.50;86.30;;;;;;5024874;28;20044;-83
2023/11/25 11:34:31;;;;;;;7.22;1.20;;;10.30;86.10;;;;;;5043690;28;20047;-84
2023/11/25 11:36:56;;;;;;;4.30;0.80;;;10.30;87.00;;;;;;5043755;28;20347;-83
2023/11/25 11:39:38;;;;;;;4.35;0.55;;;10.60;87.60;;;;;;5041845;28;20022;-82
2023/11/25 11:42:26;;;;;;;5.78;0.55;;;10.90;87.60;;;;;;5025248;28;20502;-82
2023/11/25 11:45:11;;;;;;;9.77;0.93;;;11.40;86.80;;;;;;5024404;28;20478;-82
2023/11/25 11:47:37;;;;;;;;;;;11.80;86.80;;;;;;5041355;28;20120;-83
2023/11/25 11:50:08;;;;;;;4.43;0.50;;;12.10;85.70;;;;;;5043503;28;19909;-83
2023/11/25 11:52:44;;;;;;;5.40;0.75;;;12.50;85.80;;;;;;5042215;28;20030;-81
2023/11/25 11:55:31;;;;;;;5.55;1.10;;;12.80;84.70;;;;;;5025765;28;20041;-83
2023/11/25 11:58:10;;;;;;;9.60;0.85;;;13.30;83.30;;;;;;5042708;28;20033;-83
2023/11/25 12:00:40;;;;;;;6.35;1.33;;;13.70;81.20;;;;;;5025546;28;20056;-83
2023/11/25 12:03:08;;;;;;;7.45;0.82;;;14.10;79.50;;;;;;5043381;28;20029;-83
2023/11/25 12:05:34;;;;;;;7.15;1.10;;;14.40;77.80;;;;;;5024837;28;20010;-84
2023/11/25 12:08:00;;;;;;;5.47;0.65;;;14.80;75.30;;;;;;5043597;28;20026;-84
2023/11/25 12:10:26;;;;;;;7.22;1.20;;;15.00;72.80;;;;;;5042207;28;20045;-84
2023/11/25 12:12:52;;;;;;;7.47;1.08;;;15.10;70.90;;;;;;5043100;28;20029;-84
2023/11/25 12:15:19;;;;;;;6.93;1.20;;;15.20;69.80;;;;;;5042659;28;20025;-84
2023/11/25 12:17:45;;;;;;;9.40;1.15;;;15.20;69.00;;;;;;5024238;28;20044;-83
2023/11/25 12:20:13;;;;;;;5.05;0.93;;;14.80;68.00;;;;;;5043149;28;20029;-84
2023/11/25 12:22:39;;;;;;;9.77;1.10;;;14.40;68.30;;;;;;5025016;28;20041;-84
2023/11/25 12:25:16;;;;;;;9.43;1.60;;;14.10;69.10;;;;;;5043065;28;20098;-84
2023/11/25 12:27:56;;;;;;;9.57;0.95;;;13.70;69.10;;;;;;5023614;28;20033;-84
2023/11/25 12:30:22;;;;;;;8.23;1.30;;;13.80;71.20;;;;;;5043077;28;20029;-83
2023/11/25 12:32:47;;;;;;;8.57;1.13;;;14.10;71.30;;;;;;5042506;28;20025;-84
2023/11/25 12:35:13;;;;;;;9.10;1.50;;;14.50;71.50;;;;;;5024475;28;20378;-84
2023/11/25 12:37:42;;;;;;;10.50;1.30;;;14.40;68.60;;;;;;5024457;28;20037;-83
2023/11/25 12:40:21;;;;;;;12.23;1.63;;;14.00;67.90;;;;;;5023133;28;20757;-83
2023/11/25 12:42:48;;;;;;;7.57;0.82;;;13.40;69.10;;;;;;5024357;28;20457;-84
2023/11/25 12:45:31;;;;;;;10.20;1.45;;;13.20;70.30;;;;;;5023388;28;20081;-83
2023/11/25 12:47:57;;;;;;;10.57;1.08;;;13.40;71.30;;;;;;5022107;28;20236;-84
2023/11/25 12:50:24;;;;;;;10.73;1.85;;;13.70;71.10;;;;;;5023574;28;20029;-83
2023/11/25 12:53:07;;;;;;;8.70;1.17;;;13.50;70.00;;;;;;5040962;28;20025;-84